Flight Track Log - Related Links

Times and Time Zones

All times are in EDT time to prevent confusion due to time zone crossing. See the N507PD flight status page for this flight to view local times or setup timezone preferences in your user account.

Time Position Orientation Groundspeed Altitude Reporting Facility
EDT Latitude Longitude Course Direction KTS MPH feet Rate Location/Type
Tue 08:33:17 AM 38.5356 -90.0658 201° Southwest 197 227 1,900  Level FAA TRACON SMA TRACON (SMA)
Tue 08:33:37 AM 38.5197 -90.0736 201° Southwest 219 252 2,500 1,050 Climbing FAA TRACON SMA TRACON (SMA)
Tue 08:33:57 AM 38.5081 -90.0936 233° Southwest 227 261 2,600 750 Climbing FAA TRACON SMA TRACON (SMA)
Tue 08:34:17 AM 38.4931 -90.1219 236° Southwest 241 277 3,000 1,500 Climbing FAA TRACON SMA TRACON (SMA)
Tue 08:34:37 AM 38.4778 -90.1397 222° Southwest 239 275 3,600 1,950 Climbing FAA TRACON SMA TRACON (SMA)
Tue 08:34:57 AM 38.4636 -90.1556 221° Southwest 234 269 4,300 2,100 Climbing FAA TRACON SMA TRACON (SMA)
Tue 08:35:17 AM 38.4475 -90.1753 224° Southwest 217 250 5,000 1,950 Climbing FAA TRACON SMA TRACON (SMA)
Tue 08:35:37 AM 38.4344 -90.1928 226° Southwest 217 250 5,600 1,950 Climbing FAA TRACON SMA TRACON (SMA)
Tue 08:35:57 AM 38.4203 -90.2117 226° Southwest 225 259 6,300 2,400 Climbing FAA TRACON SMA TRACON (SMA)
Tue 08:36:17 AM 38.4011 -90.2350 224° Southwest 243 280 7,200 2,400 Climbing FAA TRACON SMA TRACON (SMA)
Tue 08:36:37 AM 38.3847 -90.2547 223° Southwest 259 298 7,900 2,488 Climbing FAA TRACON SMA TRACON (SMA)
Tue 08:36:58 AM 38.3639 -90.2814 225° Southwest 276 318 8,900 2,700 Climbing FAA TRACON SMA TRACON (SMA)
Tue 08:37:17 AM 38.3464 -90.3031 224° Southwest 283 326 9,700 2,462 Climbing FAA TRACON SMA TRACON (SMA)
Tue 08:37:37 AM 38.3256 -90.3211 214° Southwest 292 336 10,500 2,550 Climbing FAA TRACON SMA TRACON (SMA)
Tue 08:37:57 AM 38.3011 -90.3217 181° South 293 337 11,400 2,927 Climbing FAA TRACON SMA TRACON (SMA)
Tue 08:38:18 AM 38.2703 -90.3183 175° South 290 334 12,500 2,850 Climbing FAA TRACON SMA TRACON (SMA)
Tue 08:38:37 AM 38.2458 -90.3114 167° South 292 336 13,300 2,462 Climbing FAA TRACON SMA TRACON (SMA)
Tue 08:38:57 AM 38.2217 -90.3028 164° South 292 336 14,100 2,850 Climbing FAA TRACON SMA TRACON (SMA)
Tue 08:39:17 AM 38.1917 -90.2972 172° South 287 330 15,200 2,780 Climbing FAA TRACON SMA TRACON (SMA)
Tue 08:39:38 AM 38.1681 -90.2908 168° South 284 327 16,000 2,700 Climbing FAA TRACON SMA TRACON (SMA)
Tue 08:39:57 AM 38.1386 -90.2800 164° South 283 326 17,000 2,923 Climbing FAA TRACON SMA TRACON (SMA)
Tue 08:40:17 AM 38.1153 -90.2739 168° South 281 323 17,900 2,550 Climbing FAA TRACON SMA TRACON (SMA)
Tue 08:40:37 AM 38.0922 -90.2703 173° South 275 316 18,700 2,488 Climbing FAA TRACON SMA TRACON (SMA)
Tue 08:40:58 AM 38.0636 -90.2617 167° South 272 313 19,600 2,550 Climbing FAA TRACON SMA TRACON (SMA)
Tue 08:41:17 AM 38.0406 -90.2536 165° South 275 316 20,400 2,154 Climbing FAA TRACON SMA TRACON (SMA)
Tue 08:41:37 AM 38.0178 -90.2464 166° South 275 316 21,000 1,500 Climbing FAA TRACON SMA TRACON (SMA)
Tue 08:41:57 AM 37.9942 -90.2406 169° South 280 322 21,400 1,463 Climbing FAA TRACON SMA TRACON (SMA)
Tue 08:42:18 AM 37.9633 -90.2347 172° South 289 333 22,000 1,610 Climbing FAA TRACON SMA TRACON (SMA)
Tue 08:42:38 AM 37.9386 -90.2269 166° South 297 342 22,500 1,650 Climbing FAA TRACON SMA TRACON (SMA)
Tue 08:42:58 AM 37.9061 -90.2172 167° South 307 353 23,100 1,692 Climbing FAA TRACON SMA TRACON (SMA)
Tue 08:43:17 AM 37.8797 -90.2114 170° South 312 359 23,600 1,385 Climbing FAA TRACON SMA TRACON (SMA)
Tue 08:43:37 AM 37.8531 -90.2022 165° South 320 368 24,000 1,350 Climbing FAA TRACON SMA TRACON (SMA)
Tue 08:43:57 AM 37.8261 -90.1944 167° South 323 372 24,500 1,610 Climbing FAA TRACON SMA TRACON (SMA)
Tue 08:44:18 AM 37.7914 -90.1853 168° South 329 379 25,100 1,650 Climbing FAA TRACON SMA TRACON (SMA)
Tue 08:44:37 AM 37.7636 -90.1808 173° South 330 380 25,600 1,171 Climbing FAA TRACON SMA TRACON (SMA)
Tue 08:44:59 AM 37.7561 -90.2339 260° West 325 374 25,900 1,317 Climbing Kansas City Center
Tue 08:45:59 AM 37.6636 -90.2092 168° South 336 387 27,400 1,686 Climbing Kansas City Center
Tue 08:47:00 AM 37.5514 -90.1792 168° South 342 394 29,300 1,645 Climbing Kansas City Center
Tue 08:48:03 AM 37.4569 -90.1542 168° South 346 398 30,800 1,475 Climbing Kansas City Center
Tue 08:48:58 AM 37.3650 -90.1325 169° South 360 414 32,200 1,148 Climbing Memphis Center
Tue 08:49:58 AM 37.2692 -90.1067 168° South 355 409 33,000 650 Climbing Memphis Center
Tue 08:50:58 AM 37.1628 -90.0783 168° South 361 415 33,500 500 Climbing Memphis Center
Tue 08:51:58 AM 37.0544 -90.0475 167° South 385 443 34,000 250 Climbing Memphis Center
Tue 08:52:58 AM 36.9397 -90.0169 168° South 403 464 34,000 150 Level Memphis Center
Tue 08:53:58 AM 36.8189 -89.9864 169° South 429 494 34,300 500 Climbing Memphis Center
Tue 08:54:58 AM 36.6958 -89.9558 169° South 442 509 35,000 350 Climbing Memphis Center
Tue 08:55:58 AM 36.5769 -89.9228 167° South 447 514 35,000  Level Memphis Center
Tue 08:56:58 AM 36.4558 -89.8875 167° South 452 520 35,000  Level Memphis Center
Tue 08:57:58 AM 36.3328 -89.8494 166° South 452 520 35,000  Level Memphis Center
Tue 08:58:58 AM 36.2075 -89.8117 166° South 452 520 35,000 200 Level Memphis Center
Tue 08:59:58 AM 36.0842 -89.7739 166° South 452 520 35,400 600 Climbing Memphis Center
Tue 09:00:58 AM 35.9756 -89.7389 165° South 452 520 36,200 850 Climbing Memphis Center
Tue 09:01:58 AM 35.8586 -89.7039 166° South 452 520 37,100 850 Climbing Memphis Center
Tue 09:02:58 AM 35.7397 -89.6689 167° South 452 520 37,900 900 Climbing Memphis Center
Tue 09:03:58 AM 35.6183 -89.6267 164° South 423 487 38,900 550 Climbing Memphis Center
Tue 09:04:58 AM 35.5119 -89.5944 166° South 428 493 39,000 50 Climbing Memphis Center
Tue 09:05:58 AM 35.3928 -89.5597 167° South 436 502 39,000  Level Memphis Center
Tue 09:06:58 AM 35.2736 -89.5253 167° South 436 502 39,000  Level Memphis Center
Tue 09:07:58 AM 35.1586 -89.4883 165° South 431 496 39,000  Level Memphis Center
Tue 09:08:58 AM 35.0417 -89.4517 166° South 431 496 39,000  Level Memphis Center
Tue 09:09:58 AM 34.9161 -89.4150 167° South 431 496 39,000  Level Memphis Center
Tue 09:10:58 AM 34.7989 -89.3833 167° South 431 496 39,000  Level Memphis Center
Tue 09:11:58 AM 34.6819 -89.3494 167° South 431 496 39,000  Level Memphis Center
Tue 09:12:58 AM 34.5669 -89.3181 167° South 431 496 39,000  Level Memphis Center
Tue 09:13:58 AM 34.4519 -89.2842 166° South 431 496 39,000  Level Memphis Center
Tue 09:14:58 AM 34.3325 -89.2506 167° South 431 496 39,000  Level Memphis Center
Tue 09:15:58 AM 34.2281 -89.2217 167° South 431 496 39,000  Level Memphis Center
Tue 09:16:58 AM 34.1128 -89.1856 165° South 431 496 39,000  Level Memphis Center
Tue 09:17:58 AM 33.9978 -89.1544 167° South 431 496 39,000  Level Memphis Center
Tue 09:18:58 AM 33.8806 -89.1211 167° South 431 496 39,000  Level Memphis Center
Tue 09:19:58 AM 33.7697 -89.0903 167° South 426 490 39,000  Level Memphis Center
Tue 09:20:58 AM 33.6567 -89.0569 166° South 419 482 39,000  Level Memphis Center
Tue 09:21:58 AM 33.5436 -89.0264 167° South 414 476 39,000  Level Memphis Center
Tue 09:22:58 AM 33.4283 -88.9931 166° South 414 476 39,000  Level Memphis Center
Tue 09:23:58 AM 33.3133 -88.9628 168° South 414 476 39,000  Level Memphis Center
Tue 09:24:58 AM 33.1981 -88.9297 167° South 414 476 39,000  Level Memphis Center
Tue 09:25:58 AM 33.0828 -88.8969 167° South 419 482 39,000  Level Memphis Center
Tue 09:26:58 AM 32.9656 -88.8642 167° South 419 482 39,000  Level Memphis Center
Tue 09:27:58 AM 32.8525 -88.8289 165° South 419 482 39,000  Level Memphis Center
Tue 09:28:58 AM 32.7331 -88.7989 168° South 424 488 39,000  Level Memphis Center
Tue 09:29:58 AM 32.6178 -88.7664 167° South 429 494 39,000 -250 Level Memphis Center
Tue 09:30:58 AM 32.5006 -88.7342 167° South 434 499 38,500 -1,050 Descending Memphis Center
Tue 09:31:58 AM 32.3811 -88.7017 167° South 434 499 36,900 -1,900 Descending Memphis Center
Tue 09:32:58 AM 32.2678 -88.6669 165° South 429 494 34,700 -2,300 Descending Memphis Center
Tue 09:33:58 AM 32.1528 -88.6372 168° South 429 494 32,300 -2,450 Descending Memphis Center
Tue 09:34:58 AM 32.0394 -88.6053 167° South 429 494 29,800 -2,512 Descending Memphis Center
Tue 09:37:21 AM 31.7533 -88.5278 167° South 432 497 23,800 -2,459 Descending Houston Center
Tue 09:38:23 AM 31.6389 -88.4972 167° South 427 491 21,400 -2,390 Descending Houston Center
Tue 09:39:24 AM 31.5297 -88.4678 167° South 410 472 18,900 -2,293 Descending Houston Center
Tue 09:40:26 AM 31.4228 -88.4406 168° South 401 461 16,700 -2,226 Descending Houston Center
Tue 09:41:28 AM 31.3239 -88.4136 167° South 384 442 14,300 -2,634 Descending Houston Center
Tue 09:42:29 AM 31.2128 -88.3836 167° South 359 413 11,300 -2,585 Descending Houston Center
Tue 09:43:31 AM 31.1233 -88.3769 176° South 337 388 9,000 -2,129 Descending Houston Center
Tue 09:44:33 AM 31.0442 -88.3697 176° South 309 356 6,900 -1,951 Descending Houston Center
Tue 09:45:34 AM 30.9733 -88.3614 174° South 279 321 5,000 -1,854 Descending Houston Center
Tue 09:46:36 AM 30.9047 -88.3442 168° South 264 304 3,100 -1,548 Descending Houston Center
Tue 09:47:38 AM 30.8269 -88.3283 170° South 248 285 1,800 -829 Descending Houston Center
Tue 09:48:39 AM 30.7792 -88.3172 169° South 203 234 1,400 -293 Descending Houston Center
Tue 09:49:41 AM 30.7422 -88.2869 145° Southeast 176 203 1,200 -435 Descending Houston Center
Tue 09:50:43 AM 30.7125 -88.2625 145° Southeast 149 171 500 -390 Descending Houston Center
Tue 09:51:44 AM 30.6842 -88.2386 144° Southeast 145 167 400 -98 Descending Houston Center
Tue 09:53:00 AM 30.6833 -88.2333 North  Level FlightAware Approximate

Login

Don't have an account? Register now (free) for customized features, flight alerts, and more!